Time;durP1;ratioP1;P1;durP2;ratioP2;P2;SDS_P1;SDS_P2;PMS_P1;PMS_P2;Temp;Humidity;BMP_temperature;BMP_pressure;BME280_temperature;BME280_humidity;BME280_pressure;Samples;Min_cycle;Max_cycle;Signal;HPM_P1;HPM_P2
2023/03/31 00:01:32;;;;;;;17.33;3.50;;;10.20;99.90;;;;;;5072684;28;20489;-50
2023/03/31 00:04:04;;;;;;;18.40;3.35;;;10.20;99.90;;;;;;5073472;28;20044;-49
2023/03/31 00:06:36;;;;;;;17.30;3.53;;;10.20;99.90;;;;;;5068193;28;20054;-49
2023/03/31 00:09:08;;;;;;;18.50;3.53;;;10.20;99.90;;;;;;5064953;28;20036;-50
2023/03/31 00:11:34;;;;;;;14.60;3.88;;;10.20;99.90;;;;;;5064604;28;20091;-50
2023/03/31 00:14:00;;;;;;;15.75;3.40;;;10.10;99.90;;;;;;5064049;28;20071;-51
2023/03/31 00:16:26;;;;;;;19.33;3.70;;;10.10;99.90;;;;;;5063706;28;20056;-51
2023/03/31 00:18:51;;;;;;;15.88;3.28;;;10.10;99.90;;;;;;5064319;28;21891;-52
2023/03/31 00:21:28;;;;;;;13.45;3.78;;;10.10;99.90;;;;;;5065385;28;20052;-50
2023/03/31 00:23:56;;;;;;;14.68;3.83;;;10.00;99.90;;;;;;5064123;28;20389;-53
2023/03/31 00:26:23;;;;;;;13.93;4.05;;;10.00;99.90;;;;;;5063703;28;20131;-52
2023/03/31 00:28:49;;;;;;;13.77;3.58;;;10.00;99.90;;;;;;5063547;28;20097;-52
2023/03/31 00:31:14;;;;;;;16.60;4.20;;;10.00;99.90;;;;;;5071917;28;20052;-48
2023/03/31 00:33:40;;;;;;;14.45;4.45;;;9.90;99.90;;;;;;5080610;28;20057;-49
2023/03/31 00:36:08;;;;;;;17.33;4.53;;;9.90;99.90;;;;;;5071678;28;20079;-48
2023/03/31 00:38:34;;;;;;;12.13;4.55;;;9.90;99.90;;;;;;5072342;28;20102;-50
2023/03/31 00:41:01;;;;;;;14.98;4.70;;;9.80;99.90;;;;;;5076573;28;20040;-51
2023/03/31 00:43:37;;;;;;;14.13;4.68;;;9.80;99.90;;;;;;5083653;28;20044;-52
2023/03/31 00:46:06;;;;;;;11.60;4.35;;;9.70;99.90;;;;;;5076031;28;20047;-49
2023/03/31 00:48:33;;;;;;;15.95;4.85;;;9.70;99.90;;;;;;5071937;28;20504;-49
2023/03/31 00:51:04;;;;;;;15.60;4.85;;;9.60;99.90;;;;;;5066392;28;20392;-51
2023/03/31 00:53:32;;;;;;;15.85;4.43;;;9.60;99.90;;;;;;5063623;28;20105;-48
2023/03/31 00:56:01;;;;;;;13.82;4.82;;;;;;;;;;5062344;28;20044;-48
2023/03/31 00:58:27;;;;;;;17.67;4.90;;;9.50;99.90;;;;;;5069723;28;20044;-48
2023/03/31 01:00:56;;;;;;;15.40;5.43;;;9.50;99.90;;;;;;5072399;28;20173;-51
2023/03/31 01:03:22;;;;;;;16.13;4.72;;;9.40;99.90;;;;;;5071900;28;20087;-48
2023/03/31 01:05:56;;;;;;;15.30;4.65;;;9.40;99.90;;;;;;5063960;28;20075;-49
2023/03/31 01:08:25;;;;;;;12.70;4.72;;;9.30;99.90;;;;;;5063196;28;20079;-50
2023/03/31 01:10:53;;;;;;;11.82;4.55;;;9.30;99.90;;;;;;5063767;28;20135;-50
2023/03/31 01:13:21;;;;;;;14.43;4.72;;;9.30;99.90;;;;;;5062001;28;20041;-48
2023/03/31 01:15:47;;;;;;;18.60;4.47;;;9.30;99.90;;;;;;5061087;28;20136;-53
2023/03/31 01:18:15;;;;;;;13.50;4.45;;;9.30;99.90;;;;;;5063519;28;20056;-48
2023/03/31 01:21:05;;;;;;;14.63;4.68;;;9.30;99.90;;;;;;5063800;28;20070;-51
2023/03/31 01:24:18;;;;;;;20.83;5.13;;;9.20;99.90;;;;;;5062705;28;20025;-52
2023/03/31 01:26:43;;;;;;;18.85;4.93;;;9.20;99.90;;;;;;5022260;28;20037;-49
2023/03/31 01:29:28;;;;;;;10.52;3.88;;;9.20;99.90;;;;;;5023353;28;20064;-52
2023/03/31 01:32:46;;;;;;;16.02;4.90;;;9.20;99.90;;;;;;5028501;28;20053;-50
2023/03/31 01:35:40;;;;;;;16.58;5.05;;;9.20;99.90;;;;;;4997438;28;20069;-49
2023/03/31 01:38:24;;;;;;;13.50;4.47;;;9.20;99.90;;;;;;5030653;28;20057;-50
2023/03/31 01:41:14;;;;;;;16.48;4.45;;;9.20;99.90;;;;;;5033907;28;20100;-50
2023/03/31 01:44:05;;;;;;;9.35;3.70;;;9.30;99.90;;;;;;5019536;28;20491;-50
2023/03/31 01:46:36;;;;;;;13.65;4.00;;;9.30;99.90;;;;;;5043963;28;20103;-49
2023/03/31 01:49:22;;;;;;;14.50;4.38;;;9.30;99.90;;;;;;5036217;28;20096;-48
2023/03/31 01:52:05;;;;;;;14.20;3.92;;;9.30;99.90;;;;;;5030820;28;20053;-48
2023/03/31 01:54:51;;;;;;;9.55;3.63;;;9.30;99.90;;;;;;5041736;28;20064;-50
2023/03/31 01:57:29;;;;;;;15.10;4.70;;;9.40;99.90;;;;;;5046156;28;20060;-53
2023/03/31 02:00:08;;;;;;;14.05;4.15;;;9.40;99.90;;;;;;5063896;28;20056;-50
2023/03/31 02:02:58;;;;;;;14.57;4.15;;;9.40;99.90;;;;;;5066991;28;20052;-50
2023/03/31 02:05:40;;;;;;;15.68;3.78;;;9.40;99.90;;;;;;5068278;28;20048;-51
2023/03/31 02:08:21;;;;;;;15.98;4.18;;;9.50;99.90;;;;;;5068079;28;20044;-50
2023/03/31 02:10:48;;;;;;;10.13;3.88;;;9.50;99.90;;;;;;5066973;28;20437;-50
2023/03/31 02:13:16;;;;;;;13.10;3.90;;;9.50;99.90;;;;;;5065421;28;20475;-48
2023/03/31 02:15:45;;;;;;;16.13;3.80;;;9.50;99.90;;;;;;5066047;28;20166;-49
2023/03/31 02:18:17;;;;;;;13.52;3.97;;;9.60;99.90;;;;;;5066432;28;20299;-49
2023/03/31 02:20:47;;;;;;;14.65;3.92;;;9.60;99.90;;;;;;5067322;28;20068;-48
2023/03/31 02:23:21;;;;;;;13.82;3.50;;;9.70;99.90;;;;;;5063617;28;20041;-48
2023/03/31 02:25:53;;;;;;;11.52;3.65;;;9.70;99.90;;;;;;5064945;28;20060;-52
2023/03/31 02:28:25;;;;;;;11.43;3.40;;;9.70;99.90;;;;;;5065551;28;20036;-51
2023/03/31 02:31:24;;;;;;;14.82;4.10;;;9.80;99.90;;;;;;5065863;28;20090;-52
2023/03/31 02:33:50;;;;;;;11.93;3.58;;;9.80;99.90;;;;;;5065839;28;20044;-49
2023/03/31 02:36:17;;;;;;;12.02;3.75;;;9.80;99.90;;;;;;5065863;28;20323;-51
2023/03/31 02:38:47;;;;;;;10.68;3.50;;;9.80;99.90;;;;;;5067362;28;20070;-49
2023/03/31 02:41:13;;;;;;;15.00;3.63;;;9.80;99.90;;;;;;5067890;28;20405;-49
2023/03/31 02:43:39;;;;;;;10.63;3.20;;;9.80;99.90;;;;;;5065560;28;20037;-49
2023/03/31 02:46:04;;;;;;;9.50;3.50;;;9.80;99.90;;;;;;5066049;28;20052;-51
2023/03/31 02:48:54;;;;;;;10.07;3.20;;;9.90;99.90;;;;;;5046278;28;20040;-51
2023/03/31 02:51:28;;;;;;;12.73;4.32;;;9.90;99.90;;;;;;5048404;28;20052;-50
2023/03/31 02:54:00;;;;;;;9.27;3.47;;;9.90;99.90;;;;;;5065757;28;20048;-50
2023/03/31 02:56:53;;;;;;;8.80;3.38;;;9.90;99.90;;;;;;5065169;28;20036;-52
2023/03/31 02:59:49;;;;;;;10.48;4.10;;;10.00;99.90;;;;;;5065485;28;20174;-49
2023/03/31 03:03:06;;;;;;;10.32;3.15;;;10.00;99.90;;;;;;5065648;28;20068;-49
2023/03/31 03:05:49;;;;;;;13.18;4.03;;;10.00;99.90;;;;;;5062960;28;20044;-51
2023/03/31 03:08:38;;;;;;;11.77;3.95;;;10.00;99.90;;;;;;5038731;28;20140;-52
2023/03/31 03:11:20;;;;;;;10.93;3.72;;;10.00;99.90;;;;;;4948763;28;20062;-51
2023/03/31 03:14:13;;;;;;;10.07;3.88;;;10.00;99.90;;;;;;4963155;28;20110;-50
2023/03/31 03:16:44;;;;;;;9.18;3.78;;;10.00;99.90;;;;;;4965076;28;20051;-50
2023/03/31 03:19:16;;;;;;;16.33;4.65;;;10.00;99.90;;;;;;4970228;28;20046;-50
2023/03/31 03:21:43;;;;;;;8.60;3.78;;;10.00;99.90;;;;;;4964991;28;20097;-53
2023/03/31 03:24:08;;;;;;;10.10;3.92;;;9.80;99.90;;;;;;4962880;28;20053;-51
2023/03/31 03:26:34;;;;;;;7.57;3.30;;;9.90;99.90;;;;;;4963458;28;20046;-51
2023/03/31 03:28:59;;;;;;;8.40;3.10;;;10.00;99.90;;;;;;4944098;28;20051;-51
2023/03/31 03:31:25;;;;;;;10.93;3.78;;;10.00;99.90;;;;;;4961892;28;20042;-50
2023/03/31 03:33:51;;;;;;;9.90;3.58;;;10.00;99.90;;;;;;4961361;28;20125;-49
2023/03/31 03:36:17;;;;;;;9.18;3.50;;;10.00;99.90;;;;;;4963593;28;20520;-50
2023/03/31 03:38:43;;;;;;;7.57;3.38;;;10.00;99.90;;;;;;4969570;28;20143;-53
2023/03/31 03:41:09;;;;;;;10.20;3.65;;;9.90;99.90;;;;;;4981120;28;20193;-51
2023/03/31 03:43:35;;;;;;;6.25;3.35;;;9.90;99.90;;;;;;4982963;28;20061;-51
2023/03/31 03:46:00;;;;;;;8.27;3.58;;;9.90;99.90;;;;;;4982884;28;20056;-50
2023/03/31 03:48:26;;;;;;;7.20;3.45;;;9.90;99.90;;;;;;5035337;28;20087;-49
2023/03/31 03:50:53;;;;;;;6.45;3.00;;;9.90;99.90;;;;;;5080285;28;20062;-51
2023/03/31 03:53:19;;;;;;;10.35;3.97;;;9.80;99.90;;;;;;5072433;28;20046;-52
2023/03/31 03:55:47;;;;;;;9.52;3.80;;;9.90;99.90;;;;;;5086950;28;20052;-49
2023/03/31 03:58:14;;;;;;;11.82;3.95;;;9.80;99.90;;;;;;5072026;28;20044;-50
2023/03/31 04:00:40;;;;;;;9.10;3.30;;;9.80;99.90;;;;;;5079807;28;20473;-51
2023/03/31 04:03:06;;;;;;;10.15;4.00;;;9.80;99.90;;;;;;5075563;28;20079;-52
2023/03/31 04:05:31;;;;;;;10.05;3.70;;;9.80;99.90;;;;;;5069689;28;20195;-53
2023/03/31 04:07:57;;;;;;;8.70;3.45;;;9.80;99.90;;;;;;5071449;28;20059;-52
2023/03/31 04:10:23;;;;;;;10.00;3.85;;;9.80;99.90;;;;;;5080464;28;20086;-51
2023/03/31 04:12:48;;;;;;;10.52;3.85;;;9.80;99.90;;;;;;5074492;28;20044;-53
2023/03/31 04:15:14;;;;;;;9.98;4.07;;;9.90;99.90;;;;;;5081237;28;20537;-54
2023/03/31 04:17:40;;;;;;;12.00;3.78;;;9.80;99.90;;;;;;5069554;28;20055;-49
2023/03/31 04:20:08;;;;;;;7.90;3.85;;;9.80;99.90;;;;;;5070404;28;20040;-52
2023/03/31 04:22:39;;;;;;;11.38;4.00;;;9.90;99.90;;;;;;5077257;28;20047;-53
2023/03/31 04:25:15;;;;;;;8.45;3.40;;;9.90;99.90;;;;;;5072227;28;20389;-50
2023/03/31 04:27:49;;;;;;;9.52;3.67;;;9.90;99.90;;;;;;5070656;28;20048;-52
2023/03/31 04:30:21;;;;;;;12.63;3.80;;;9.90;99.90;;;;;;5085563;28;20146;-50
2023/03/31 04:32:52;;;;;;;12.32;4.32;;;9.90;99.90;;;;;;5068813;28;20055;-50
2023/03/31 04:35:19;;;;;;;8.10;3.80;;;9.90;99.90;;;;;;5070552;28;20166;-49
2023/03/31 04:37:46;;;;;;;10.10;3.30;;;9.90;99.90;;;;;;5069024;28;20045;-52
2023/03/31 04:40:12;;;;;;;10.27;4.10;;;9.90;99.90;;;;;;5084224;28;20119;-50
2023/03/31 04:42:38;;;;;;;10.00;3.80;;;10.00;99.90;;;;;;5068776;28;20188;-49
2023/03/31 04:45:04;;;;;;;10.27;3.80;;;10.00;99.90;;;;;;5082755;28;20056;-50
2023/03/31 04:47:30;;;;;;;10.27;4.35;;;9.90;99.90;;;;;;5075773;28;20413;-49
2023/03/31 04:49:55;;;;;;;12.40;5.32;;;9.90;99.90;;;;;;5067914;28;20048;-50
2023/03/31 04:52:21;;;;;;;10.32;5.00;;;9.90;99.90;;;;;;5068947;28;20040;-53
2023/03/31 04:54:46;;;;;;;9.55;4.10;;;10.00;99.90;;;;;;5070360;28;20048;-50
2023/03/31 04:57:12;;;;;;;11.02;4.28;;;9.90;99.90;;;;;;5069741;28;20033;-53
2023/03/31 04:59:38;;;;;;;8.93;4.38;;;10.00;99.90;;;;;;5071895;28;20600;-54
2023/03/31 05:02:03;;;;;;;11.18;4.28;;;10.00;99.90;;;;;;5079521;28;20534;-51
2023/03/31 05:04:29;;;;;;;7.63;4.00;;;10.10;99.90;;;;;;5058161;28;20140;-50
2023/03/31 05:06:55;;;;;;;10.45;4.28;;;10.00;99.90;;;;;;5084824;28;20049;-50
2023/03/31 05:09:21;;;;;;;9.48;3.90;;;10.00;99.90;;;;;;5076113;28;20139;-50
2023/03/31 05:11:46;;;;;;;9.45;4.25;;;10.00;99.90;;;;;;5068280;28;20126;-50
2023/03/31 05:14:12;;;;;;;12.10;4.10;;;10.00;99.90;;;;;;5075105;28;20047;-51
2023/03/31 05:16:38;;;;;;;10.48;4.10;;;10.00;99.90;;;;;;5071398;28;20074;-51
2023/03/31 05:19:03;;;;;;;12.10;3.95;;;10.00;99.90;;;;;;5068762;28;20636;-49
2023/03/31 05:21:30;;;;;;;9.63;4.28;;;10.00;99.90;;;;;;5073486;28;20040;-50
2023/03/31 05:23:56;;;;;;;10.57;4.20;;;10.00;99.90;;;;;;5059594;28;20408;-49
2023/03/31 05:26:24;;;;;;;6.93;4.18;;;10.00;99.90;;;;;;5059512;28;20048;-51
2023/03/31 05:28:50;;;;;;;12.32;4.55;;;10.00;99.90;;;;;;5062493;28;20097;-52
2023/03/31 05:31:16;;;;;;;13.18;4.80;;;10.00;99.90;;;;;;5067241;28;20474;-50
2023/03/31 05:33:42;;;;;;;8.73;4.90;;;10.00;99.90;;;;;;5075376;28;20131;-50
2023/03/31 05:36:14;;;;;;;10.52;5.07;;;9.90;99.90;;;;;;5075740;28;20211;-50
2023/03/31 05:38:40;;;;;;;12.35;4.90;;;10.00;99.90;;;;;;5075618;28;20032;-50
2023/03/31 05:41:08;;;;;;;10.55;4.40;;;9.90;99.90;;;;;;5075500;28;20076;-51
2023/03/31 05:43:34;;;;;;;10.75;5.00;;;9.90;99.90;;;;;;5075645;28;20539;-50
2023/03/31 05:46:01;;;;;;;10.48;4.60;;;9.90;99.90;;;;;;5075402;28;20413;-50
2023/03/31 05:48:26;;;;;;;11.00;5.03;;;9.90;99.90;;;;;;5075330;28;20037;-50
2023/03/31 05:50:59;;;;;;;11.65;4.55;;;9.90;99.90;;;;;;5075353;28;20063;-51
2023/03/31 05:53:25;;;;;;;9.85;4.18;;;9.90;99.90;;;;;;5078262;28;20040;-54
2023/03/31 05:55:59;;;;;;;11.70;4.40;;;9.90;99.90;;;;;;5079583;28;20051;-53
2023/03/31 05:58:25;;;;;;;14.18;4.45;;;9.90;99.90;;;;;;5077892;28;20048;-55
2023/03/31 06:01:09;;;;;;;9.90;3.78;;;9.90;99.90;;;;;;5075378;28;20044;-51
2023/03/31 06:03:37;;;;;;;12.20;4.00;;;9.90;99.90;;;;;;5075536;28;20048;-54
2023/03/31 06:06:04;;;;;;;9.95;3.95;;;9.90;99.90;;;;;;5064541;28;20051;-53
2023/03/31 06:08:30;;;;;;;9.80;3.90;;;;;;;;;;5063145;28;20075;-52
2023/03/31 06:10:56;;;;;;;9.52;4.13;;;9.80;99.90;;;;;;5062598;28;20086;-53
2023/03/31 06:13:22;;;;;;;7.97;3.40;;;9.90;99.90;;;;;;5062779;28;20354;-53
2023/03/31 06:15:56;;;;;;;12.60;3.75;;;9.90;99.90;;;;;;5063161;28;20103;-53
2023/03/31 06:18:22;;;;;;;9.45;3.40;;;9.90;99.90;;;;;;5062507;28;20135;-53
2023/03/31 06:20:49;;;;;;;9.85;3.47;;;9.90;99.90;;;;;;5064417;28;20048;-52
2023/03/31 06:23:15;;;;;;;10.52;3.60;;;9.90;99.90;;;;;;5061611;28;20321;-55
2023/03/31 06:25:41;;;;;;;10.65;3.55;;;9.90;99.90;;;;;;5071807;28;20109;-54
2023/03/31 06:28:06;;;;;;;8.63;3.30;;;9.90;99.90;;;;;;5075920;28;20041;-51
2023/03/31 06:30:32;;;;;;;6.88;3.00;;;9.90;99.90;;;;;;5077423;28;20056;-52
2023/03/31 06:32:58;;;;;;;10.70;3.50;;;9.90;99.90;;;;;;5080773;28;20115;-51
2023/03/31 06:35:23;;;;;;;10.35;3.60;;;9.90;99.90;;;;;;5074620;28;20117;-51
2023/03/31 06:37:49;;;;;;;9.20;3.50;;;9.90;99.90;;;;;;5074292;28;20079;-50
2023/03/31 06:40:15;;;;;;;9.02;3.72;;;9.90;99.90;;;;;;5076146;28;20537;-53
2023/03/31 06:42:40;;;;;;;11.50;3.88;;;9.90;99.90;;;;;;5070060;28;20040;-53
2023/03/31 06:45:07;;;;;;;8.48;3.78;;;9.90;99.90;;;;;;5061925;28;20107;-53
2023/03/31 06:47:32;;;;;;;11.02;3.63;;;10.00;99.90;;;;;;5078876;28;20054;-52
2023/03/31 06:49:58;;;;;;;9.95;3.22;;;10.00;99.90;;;;;;5060871;28;20036;-53
2023/03/31 06:52:24;;;;;;;8.20;2.85;;;10.10;99.90;;;;;;5062813;28;20098;-53
2023/03/31 06:54:49;;;;;;;10.40;3.40;;;10.10;99.90;;;;;;5064071;28;20041;-52
2023/03/31 06:57:15;;;;;;;11.40;3.10;;;10.20;99.90;;;;;;5063070;28;20046;-50
2023/03/31 06:59:41;;;;;;;11.80;3.30;;;10.20;99.90;;;;;;5062705;28;20429;-51
2023/03/31 07:02:08;;;;;;;9.73;3.55;;;10.20;99.90;;;;;;5064451;28;20379;-51
2023/03/31 07:04:34;;;;;;;8.35;3.45;;;10.20;99.90;;;;;;5061975;28;20045;-52
2023/03/31 07:07:00;;;;;;;10.00;3.08;;;10.20;99.90;;;;;;5063183;28;20037;-50
2023/03/31 07:09:25;;;;;;;11.23;3.85;;;10.20;99.90;;;;;;5065205;28;20044;-54
2023/03/31 07:11:51;;;;;;;11.27;3.95;;;10.20;99.90;;;;;;5060499;28;20040;-54
2023/03/31 07:14:17;;;;;;;8.82;4.05;;;10.30;99.90;;;;;;5061920;28;20484;-51
2023/03/31 07:16:42;;;;;;;8.98;3.30;;;10.30;99.90;;;;;;5077691;28;20051;-52
2023/03/31 07:19:09;;;;;;;9.75;3.53;;;10.30;99.90;;;;;;5062792;28;20053;-50
2023/03/31 07:21:35;;;;;;;11.05;3.63;;;10.40;99.90;;;;;;5062410;28;20041;-51
2023/03/31 07:24:01;;;;;;;8.20;3.45;;;10.40;99.90;;;;;;5059278;28;20599;-50
2023/03/31 07:26:27;;;;;;;7.57;3.13;;;10.40;99.90;;;;;;5064160;28;20044;-51
2023/03/31 07:28:55;;;;;;;8.57;3.50;;;10.50;99.90;;;;;;5062280;28;20044;-52
2023/03/31 07:31:21;;;;;;;13.13;3.78;;;10.50;99.90;;;;;;5069561;28;20041;-51
2023/03/31 07:33:47;;;;;;;6.45;3.25;;;10.50;99.90;;;;;;5072299;28;20037;-51
2023/03/31 07:36:13;;;;;;;11.00;3.25;;;10.50;99.90;;;;;;5070341;28;20128;-52
2023/03/31 07:38:41;;;;;;;9.95;3.25;;;10.60;99.90;;;;;;5074475;28;20127;-52
2023/03/31 07:41:14;;;;;;;;;;;10.60;99.90;;;;;;5083009;28;20068;-53
2023/03/31 07:43:40;;;;;;;9.77;2.88;;;10.60;99.90;;;;;;5081118;28;19923;-54
2023/03/31 07:46:07;;;;;;;7.20;3.10;;;10.70;99.90;;;;;;5083674;28;20056;-54
2023/03/31 07:48:33;;;;;;;12.57;3.55;;;10.70;99.90;;;;;;5081557;28;20071;-51
2023/03/31 07:50:59;;;;;;;7.07;2.65;;;10.70;99.90;;;;;;5080521;28;20135;-49
2023/03/31 07:53:24;;;;;;;7.28;2.80;;;10.70;99.90;;;;;;5075937;28;20518;-53
2023/03/31 07:55:50;;;;;;;7.82;2.47;;;10.80;99.90;;;;;;5084380;28;20044;-53
2023/03/31 07:58:16;;;;;;;7.35;2.70;;;10.70;99.90;;;;;;5081332;28;20067;-54
2023/03/31 08:00:41;;;;;;;9.13;2.80;;;10.80;99.90;;;;;;5075344;28;20127;-50
2023/03/31 08:03:07;;;;;;;8.93;2.90;;;10.70;99.90;;;;;;5060848;28;20059;-52
2023/03/31 08:05:33;;;;;;;9.73;2.88;;;10.80;99.90;;;;;;5060093;28;20477;-50
2023/03/31 08:07:58;;;;;;;7.72;2.85;;;10.80;99.90;;;;;;5062823;28;20048;-50
2023/03/31 08:10:26;;;;;;;8.77;3.00;;;10.80;99.90;;;;;;5059657;28;20040;-50
2023/03/31 08:12:52;;;;;;;10.07;3.17;;;10.80;99.90;;;;;;5061850;28;20103;-51
2023/03/31 08:15:18;;;;;;;9.50;3.42;;;10.90;99.90;;;;;;5069337;28;20504;-49
2023/03/31 08:17:44;;;;;;;8.00;2.97;;;11.00;99.90;;;;;;5072272;28;20051;-51
2023/03/31 08:20:10;;;;;;;9.27;3.03;;;11.10;99.90;;;;;;5069261;28;20059;-52
2023/03/31 08:22:37;;;;;;;12.93;3.55;;;11.00;99.90;;;;;;5066174;28;20135;-52
2023/03/31 08:25:04;;;;;;;9.37;2.43;;;11.10;99.90;;;;;;5072752;28;20101;-51
2023/03/31 08:27:34;;;;;;;9.32;3.17;;;11.10;99.90;;;;;;5071539;28;20589;-50
2023/03/31 08:30:03;;;;;;;6.55;2.80;;;11.20;99.90;;;;;;5067559;28;20121;-50
2023/03/31 08:32:30;;;;;;;6.88;2.30;;;11.20;99.90;;;;;;5073071;28;20135;-50
2023/03/31 08:34:55;;;;;;;9.10;2.70;;;11.20;99.90;;;;;;5069865;28;20039;-50
2023/03/31 08:37:21;;;;;;;8.32;2.53;;;11.30;99.90;;;;;;5066917;28;20035;-50
2023/03/31 08:39:46;;;;;;;8.02;2.47;;;11.30;99.90;;;;;;5073226;28;20502;-50
2023/03/31 08:42:21;;;;;;;8.13;2.38;;;11.30;99.90;;;;;;5074978;28;20046;-50
2023/03/31 08:45:21;;;;;;;6.45;2.70;;;11.30;99.90;;;;;;5076371;28;21023;-51
2023/03/31 09:52:33;;;;;;;5.68;1.40;;;11.80;99.90;;;;;;2683601;22;20344;-76
2023/03/31 09:55:09;;;;;;;3.65;1.30;;;11.80;99.90;;;;;;5102385;28;20488;-75
2023/03/31 09:57:38;;;;;;;3.65;1.40;;;11.70;99.90;;;;;;5065490;22;20136;-52
2023/03/31 10:00:15;;;;;;;4.65;1.30;;;11.70;99.90;;;;;;5024235;28;20045;-54
2023/03/31 10:02:44;;;;;;;4.82;1.30;;;11.70;99.90;;;;;;4996027;28;20042;-53
2023/03/31 10:05:32;;;;;;;5.15;1.60;;;11.60;99.90;;;;;;5019444;28;20054;-51
2023/03/31 10:08:18;;;;;;;3.75;1.60;;;11.60;99.90;;;;;;5017651;28;24350;-54
2023/03/31 10:10:47;;;;;;;4.57;1.70;;;11.70;99.90;;;;;;5015850;28;20463;-53
2023/03/31 10:13:17;;;;;;;5.30;1.60;;;11.80;99.90;;;;;;5026699;28;20253;-55
2023/03/31 10:15:43;;;;;;;3.78;1.50;;;11.80;99.90;;;;;;5022601;28;20755;-55
2023/03/31 10:18:17;;;;;;;3.50;1.58;;;11.90;99.90;;;;;;5018526;28;20038;-56
2023/03/31 10:20:50;;;;;;;5.90;1.73;;;12.00;99.90;;;;;;5013046;28;20042;-51
2023/03/31 10:23:27;;;;;;;5.22;1.75;;;12.10;99.90;;;;;;5030647;28;20042;-54
2023/03/31 10:25:54;;;;;;;5.05;1.83;;;12.20;99.90;;;;;;4992453;28;20088;-55
2023/03/31 10:28:21;;;;;;;3.38;1.60;;;12.40;99.90;;;;;;5008199;28;20041;-51
2023/03/31 10:31:01;;;;;;;3.10;1.55;;;12.60;99.90;;;;;;4996357;28;20081;-52
2023/03/31 10:33:30;;;;;;;3.58;1.80;;;12.40;99.90;;;;;;5022016;28;20600;-53
2023/03/31 10:36:07;;;;;;;4.32;1.42;;;12.30;99.90;;;;;;5022384;28;20045;-55
2023/03/31 10:38:34;;;;;;;4.32;1.42;;;12.30;99.90;;;;;;5021236;28;20035;-54
2023/03/31 10:41:00;;;;;;;5.32;1.50;;;12.30;99.90;;;;;;5027415;28;20451;-53
2023/03/31 10:43:51;;;;;;;4.07;1.58;;;12.30;99.90;;;;;;5013298;28;20045;-55
2023/03/31 10:46:17;;;;;;;5.97;1.58;;;12.20;99.90;;;;;;4999458;28;20052;-55
2023/03/31 10:48:44;;;;;;;4.78;1.80;;;12.10;99.90;;;;;;5003930;28;20046;-56
2023/03/31 10:51:11;;;;;;;4.13;2.22;;;12.10;99.90;;;;;;5013667;28;20409;-54
2023/03/31 10:53:42;;;;;;;4.97;1.80;;;12.00;99.90;;;;;;5019753;28;20041;-55
2023/03/31 10:56:38;;;;;;;4.25;1.90;;;12.10;99.90;;;;;;4994088;28;20082;-55
2023/03/31 10:59:20;;;;;;;5.85;2.20;;;12.10;99.90;;;;;;5091087;28;20519;-53
2023/03/31 11:01:59;;;;;;;5.90;1.70;;;12.20;99.90;;;;;;5092940;28;20115;-56
2023/03/31 11:05:05;;;;;;;3.20;1.70;;;12.30;99.90;;;;;;5088764;28;20111;-56
2023/03/31 11:08:09;;;;;;;3.05;1.73;;;12.40;99.90;;;;;;4986513;28;20125;-55
2023/03/31 11:11:15;;;;;;;4.32;1.63;;;12.60;99.90;;;;;;4983096;28;20050;-56
2023/03/31 11:14:08;;;;;;;5.13;1.70;;;12.70;99.90;;;;;;4974262;28;20483;-56
2023/03/31 11:17:13;;;;;;;4.32;1.63;;;12.80;99.90;;;;;;4992413;28;20062;-56
2023/03/31 11:20:07;;;;;;;4.28;1.88;;;13.00;99.90;;;;;;4983843;28;20511;-55
2023/03/31 11:22:33;;;;;;;4.95;1.55;;;12.90;99.90;;;;;;4977896;28;20117;-56
2023/03/31 11:25:07;;;;;;;5.03;2.17;;;12.80;99.90;;;;;;4985754;28;20156;-56
2023/03/31 11:27:51;;;;;;;5.00;1.92;;;12.90;99.90;;;;;;4983777;28;20049;-55
2023/03/31 11:30:32;;;;;;;6.70;1.80;;;13.10;99.90;;;;;;4985362;28;20062;-56
2023/03/31 11:33:15;;;;;;;5.07;1.85;;;13.20;99.90;;;;;;4991428;28;20046;-53
2023/03/31 11:36:16;;;;;;;4.53;1.80;;;;;;;;;;4989618;28;20054;-53
2023/03/31 11:38:56;;;;;;;4.50;1.92;;;13.50;99.90;;;;;;4954453;28;20476;-57
2023/03/31 11:41:34;;;;;;;6.75;2.40;;;13.60;99.90;;;;;;4968781;28;20035;-52
2023/03/31 11:44:08;;;;;;;7.43;2.45;;;13.60;99.90;;;;;;5063597;28;20113;-53
2023/03/31 11:47:09;;;;;;;6.68;2.28;;;13.60;99.90;;;;;;5091998;28;20044;-57
2023/03/31 11:49:41;;;;;;;8.48;2.70;;;13.60;99.90;;;;;;5067532;28;20064;-52
2023/03/31 11:52:31;;;;;;;8.60;2.47;;;13.70;99.90;;;;;;5086798;28;20036;-53
2023/03/31 11:55:10;;;;;;;7.60;2.42;;;13.70;99.90;;;;;;5070668;28;20101;-55
2023/03/31 11:57:44;;;;;;;7.40;2.88;;;13.60;99.90;;;;;;5088428;28;20059;-55
2023/03/31 12:00:21;;;;;;;6.95;2.88;;;13.80;99.90;;;;;;5083277;28;20028;-54
2023/03/31 12:03:00;;;;;;;11.38;3.05;;;14.00;99.90;;;;;;5091936;28;20036;-53
2023/03/31 12:05:29;;;;;;;9.57;3.15;;;14.50;99.90;;;;;;5090156;28;20093;-52
2023/03/31 12:08:12;;;;;;;8.50;2.88;;;14.60;99.90;;;;;;5093036;28;20047;-52
2023/03/31 12:10:43;;;;;;;10.07;3.00;;;14.80;99.90;;;;;;5089385;28;20062;-54
2023/03/31 12:13:37;;;;;;;10.57;3.42;;;14.90;99.90;;;;;;5068293;28;20048;-55
2023/03/31 12:16:05;;;;;;;12.65;3.15;;;15.00;99.90;;;;;;5091354;28;20053;-54
2023/03/31 12:18:36;;;;;;;10.23;3.65;;;15.20;99.90;;;;;;5077613;28;20051;-56
2023/03/31 12:21:04;;;;;;;9.18;3.10;;;15.20;99.90;;;;;;5087311;28;20048;-57
2023/03/31 12:23:36;;;;;;;13.80;2.90;;;15.30;99.90;;;;;;5073173;28;20052;-51
2023/03/31 12:26:08;;;;;;;11.63;3.08;;;15.40;99.90;;;;;;5066978;28;20052;-55
2023/03/31 12:28:36;;;;;;;12.13;3.35;;;15.30;99.90;;;;;;5092400;28;20524;-55
2023/03/31 12:31:04;;;;;;;10.80;3.58;;;15.40;99.90;;;;;;5090860;28;20071;-54
2023/03/31 12:33:41;;;;;;;10.27;2.72;;;15.20;99.90;;;;;;5091986;28;20039;-52
2023/03/31 12:36:20;;;;;;;9.48;2.80;;;15.10;99.90;;;;;;5092039;28;20233;-52
2023/03/31 12:39:02;;;;;;;8.70;2.50;;;15.00;99.90;;;;;;5082111;28;20035;-55
2023/03/31 12:41:43;;;;;;;10.43;3.08;;;14.80;99.90;;;;;;5086932;28;20043;-55
2023/03/31 12:44:45;;;;;;;11.63;3.63;;;14.70;99.90;;;;;;5086436;28;20044;-56
2023/03/31 12:47:32;;;;;;;11.02;2.90;;;14.70;99.90;;;;;;5085847;28;20051;-53
2023/03/31 12:50:10;;;;;;;10.20;2.95;;;14.70;99.90;;;;;;5072113;28;20481;-54
2023/03/31 12:53:13;;;;;;;11.77;2.88;;;14.80;99.90;;;;;;5090178;28;20086;-55
2023/03/31 12:55:44;;;;;;;9.43;3.13;;;14.60;99.90;;;;;;5072785;28;20531;-54
2023/03/31 12:58:23;;;;;;;8.98;2.53;;;14.60;99.90;;;;;;5014929;28;20054;-55
2023/03/31 13:01:03;;;;;;;8.60;2.50;;;14.40;99.90;;;;;;5007872;28;20061;-55
2023/03/31 13:04:16;;;;;;;10.50;2.60;;;14.30;99.90;;;;;;5007997;28;20046;-54
2023/03/31 13:06:42;;;;;;;13.60;2.92;;;14.20;99.90;;;;;;5012949;28;20050;-55
2023/03/31 13:09:10;;;;;;;9.35;2.40;;;14.30;99.90;;;;;;5008440;28;20099;-52
2023/03/31 13:11:39;;;;;;;12.30;3.15;;;14.20;99.90;;;;;;5008135;28;20546;-53
2023/03/31 13:14:13;;;;;;;9.85;2.90;;;14.10;99.90;;;;;;5007426;28;20039;-52
2023/03/31 13:16:39;;;;;;;13.27;3.67;;;14.10;99.90;;;;;;5006513;28;20517;-54
2023/03/31 13:19:05;;;;;;;12.35;2.70;;;14.00;99.90;;;;;;5007511;28;20133;-55
2023/03/31 13:21:50;;;;;;;10.52;2.92;;;13.90;99.90;;;;;;5008104;28;20122;-53
2023/03/31 13:24:24;;;;;;;12.55;3.03;;;13.90;99.90;;;;;;5007020;28;20107;-53
2023/03/31 13:26:51;;;;;;;10.93;2.75;;;13.90;99.90;;;;;;5006363;28;20061;-52
2023/03/31 13:29:23;;;;;;;12.20;3.15;;;13.90;99.90;;;;;;5007678;28;20475;-52
2023/03/31 13:32:01;;;;;;;10.10;2.58;;;13.90;99.90;;;;;;5006414;28;20073;-55
2023/03/31 13:34:47;;;;;;;9.00;2.85;;;;;;;;;;5007508;28;20107;-51
2023/03/31 13:37:30;;;;;;;8.82;2.50;;;13.70;99.90;;;;;;5020318;28;20050;-55
2023/03/31 13:40:31;;;;;;;13.95;2.97;;;13.60;99.90;;;;;;5010452;28;20137;-53
2023/03/31 13:43:14;;;;;;;10.70;2.60;;;13.60;99.90;;;;;;5007666;28;20048;-52
2023/03/31 13:46:05;;;;;;;10.30;2.65;;;13.50;99.90;;;;;;5004413;28;20123;-53
2023/03/31 13:48:57;;;;;;;9.80;2.35;;;13.40;99.90;;;;;;4997179;28;20470;-56
2023/03/31 13:51:56;;;;;;;9.45;2.35;;;13.30;99.90;;;;;;5012097;28;20042;-51
2023/03/31 13:54:28;;;;;;;9.68;2.45;;;;;;;;;;5012528;28;20091;-54
2023/03/31 13:57:22;;;;;;;11.75;2.85;;;13.00;99.90;;;;;;5013800;28;20058;-56
2023/03/31 14:00:13;;;;;;;11.90;2.60;;;13.00;99.90;;;;;;5006135;28;20052;-56
2023/03/31 14:02:57;;;;;;;10.90;2.83;;;12.90;99.90;;;;;;5008004;28;20050;-52
2023/03/31 14:05:40;;;;;;;11.00;2.50;;;12.80;99.90;;;;;;5003090;28;20102;-56
2023/03/31 14:08:40;;;;;;;12.25;2.50;;;12.90;99.90;;;;;;5004401;28;20539;-55
2023/03/31 14:11:16;;;;;;;10.27;2.40;;;12.70;99.90;;;;;;4994357;28;20077;-56
2023/03/31 14:13:42;;;;;;;8.30;2.25;;;12.70;99.90;;;;;;5009966;28;20042;-57
2023/03/31 14:16:08;;;;;;;9.98;2.63;;;12.60;99.90;;;;;;5007548;28;20122;-56
2023/03/31 14:18:38;;;;;;;9.32;2.63;;;12.60;99.90;;;;;;5006256;28;20077;-55
2023/03/31 14:21:44;;;;;;;7.97;2.15;;;;;;;;;;5011371;28;20408;-55
2023/03/31 14:24:16;;;;;;;8.32;2.20;;;12.50;99.90;;;;;;4911482;28;20482;-56